Search for airport 
image banner adimage banner adimage banner ad
image banner ad

PS02 - Heberlig

Located in Newville, United States

ICAO - PS02, IATA -

Data provided by Airmate  

General information

Coordinates: N40°9'51" W77°22'14"
Elevation is 560 feet MSL.
Magnetic variation is -10° East
View others Airports in Pennsylvania

Operational data

Special qualification required
Current time UTC:
Current local time:
Weather at : KCXY - Capital City ( 44 km )
METAR: KCXY 071256Z 09007KT 10SM BKN075 OVC090 12/02 A2991 RMK AO2 SLP129 T01170017
View NOTAMs / SUP AIP / TFR affecting this airport [VIEW]
Communications frequencies: [VIEW]

Runways:

RWY identifierQFULength (ft)Width (ft)SurfaceLDA (ft)
E2250100GRASS
W2250100GRASS

Airport contact information

Address: Newville United States

Satellite view of PS02